createdAt,value
2016-12-17T00:00:40.920Z,0
2016-12-17T00:01:51.672Z,0
2016-12-17T00:03:02.369Z,0
2016-12-17T00:04:13.364Z,0
2016-12-17T00:05:24.088Z,0
2016-12-17T00:06:34.785Z,0
2016-12-17T00:07:45.509Z,0
2016-12-17T00:08:56.251Z,0
2016-12-17T00:10:06.969Z,0
2016-12-17T00:11:17.667Z,0
2016-12-17T00:12:28.390Z,0
2016-12-17T00:13:39.107Z,0
2016-12-17T00:14:49.807Z,0
2016-12-17T00:16:00.553Z,0
2016-12-17T00:17:11.277Z,0
2016-12-17T00:18:22.020Z,0
2016-12-17T00:19:32.747Z,0
2016-12-17T00:20:43.463Z,0
2016-12-17T00:21:54.204Z,0
2016-12-17T00:23:04.927Z,0
2016-12-17T00:24:15.650Z,0
2016-12-17T00:25:26.394Z,0
2016-12-17T00:26:37.447Z,0
2016-12-17T00:27:48.165Z,0
2016-12-17T00:28:58.880Z,0
2016-12-17T00:30:09.604Z,0
2016-12-17T00:31:20.325Z,0
2016-12-17T00:32:31.068Z,0
2016-12-17T00:33:41.769Z,0
2016-12-17T00:34:52.518Z,0
2016-12-17T00:36:03.261Z,0
2016-12-17T00:37:14.020Z,0
2016-12-17T00:38:24.765Z,0
2016-12-17T00:39:35.470Z,0
2016-12-17T00:40:46.190Z,0
2016-12-17T00:41:56.920Z,0
2016-12-17T00:43:07.652Z,0
2016-12-17T00:44:18.380Z,0
2016-12-17T00:45:29.099Z,0
2016-12-17T00:46:39.812Z,0
2016-12-17T00:47:50.541Z,0
2016-12-17T00:49:01.266Z,0
2016-12-17T00:50:12.012Z,0
2016-12-17T00:51:22.759Z,0
2016-12-17T00:52:33.478Z,0
2016-12-17T00:53:44.222Z,0
2016-12-17T00:54:54.960Z,0
2016-12-17T00:56:05.688Z,0
2016-12-17T00:57:16.405Z,0
2016-12-17T00:58:27.133Z,0
2016-12-17T00:59:37.826Z,0
2016-12-17T01:00:48.532Z,0
2016-12-17T01:01:59.247Z,0
2016-12-17T01:03:09.963Z,0
2016-12-17T01:04:20.670Z,0
2016-12-17T01:05:31.389Z,0
2016-12-17T01:06:42.126Z,0
2016-12-17T01:07:52.848Z,0
2016-12-17T01:09:03.544Z,0
2016-12-17T01:10:14.249Z,0
2016-12-17T01:11:24.960Z,0
2016-12-17T01:12:35.660Z,0
2016-12-17T01:13:46.402Z,0
2016-12-17T01:14:57.152Z,0
2016-12-17T01:16:07.894Z,0
2016-12-17T01:17:18.644Z,0
2016-12-17T01:18:29.389Z,0
2016-12-17T01:19:40.086Z,0
2016-12-17T01:20:50.806Z,0
2016-12-17T01:22:01.527Z,0
2016-12-17T01:23:12.248Z,0
2016-12-17T01:24:22.974Z,0
2016-12-17T01:25:33.703Z,0
2016-12-17T01:26:44.410Z,0
2016-12-17T01:27:55.156Z,0
2016-12-17T01:29:05.903Z,0
2016-12-17T01:30:16.662Z,0
2016-12-17T01:31:27.412Z,0
2016-12-17T01:32:38.140Z,0
2016-12-17T01:33:48.882Z,0
2016-12-17T01:34:59.908Z,0
2016-12-17T01:36:10.649Z,0
2016-12-17T01:37:21.374Z,0
2016-12-17T01:38:32.094Z,0
2016-12-17T01:39:42.815Z,0
2016-12-17T01:40:53.533Z,0
2016-12-17T01:42:04.255Z,0
2016-12-17T01:43:14.953Z,0
2016-12-17T01:44:25.673Z,0
2016-12-17T01:45:36.395Z,0
2016-12-17T01:46:47.116Z,0
2016-12-17T01:47:57.833Z,0
2016-12-17T01:49:08.557Z,0
2016-12-17T01:50:19.272Z,0
2016-12-17T01:51:30.001Z,0
2016-12-17T01:52:40.738Z,0
2016-12-17T01:53:51.462Z,0
2016-12-17T01:55:02.176Z,0
2016-12-17T01:56:12.909Z,0
2016-12-17T01:57:23.604Z,0
2016-12-17T01:58:34.332Z,0
2016-12-17T01:59:45.072Z,0
2016-12-17T02:00:55.814Z,0
2016-12-17T02:02:06.543Z,0
2016-12-17T02:03:17.259Z,0
2016-12-17T02:04:27.969Z,0
2016-12-17T02:05:38.725Z,0
2016-12-17T02:06:49.471Z,0
2016-12-17T02:08:00.199Z,0
2016-12-17T02:09:10.937Z,0
2016-12-17T02:10:21.660Z,0
2016-12-17T02:11:32.395Z,0
2016-12-17T02:12:43.098Z,0
2016-12-17T02:13:53.797Z,0
2016-12-17T02:15:04.523Z,0
2016-12-17T02:16:15.266Z,0
2016-12-17T02:17:26.000Z,0
2016-12-17T02:18:36.729Z,0
2016-12-17T02:19:47.425Z,0
2016-12-17T02:20:58.124Z,0
2016-12-17T02:22:08.849Z,0
2016-12-17T02:23:19.590Z,0
2016-12-17T02:24:30.330Z,0
2016-12-17T02:25:41.058Z,0
2016-12-17T02:26:51.800Z,0
2016-12-17T02:28:02.525Z,0
2016-12-17T02:29:13.264Z,0
2016-12-17T02:30:24.295Z,0
2016-12-17T02:31:35.015Z,0
2016-12-17T02:32:45.735Z,0
2016-12-17T02:33:56.772Z,0
2016-12-17T02:35:07.501Z,0
2016-12-17T02:36:18.238Z,0
2016-12-17T02:37:28.960Z,0
2016-12-17T02:38:39.692Z,0
2016-12-17T02:39:50.413Z,0
2016-12-17T02:41:01.153Z,0
2016-12-17T02:42:11.875Z,0
2016-12-17T02:43:22.614Z,0
2016-12-17T02:44:33.314Z,0
2016-12-17T02:45:44.035Z,0
2016-12-17T02:46:54.731Z,0
2016-12-17T02:48:05.432Z,0
2016-12-17T02:49:16.169Z,0
2016-12-17T02:50:26.872Z,0
2016-12-17T02:51:37.615Z,0
2016-12-17T02:52:48.631Z,0
2016-12-17T02:53:59.363Z,0
2016-12-17T02:55:10.085Z,0
2016-12-17T02:56:20.801Z,0
2016-12-17T02:57:31.531Z,0
2016-12-17T02:58:42.282Z,0
2016-12-17T02:59:53.014Z,0
2016-12-17T03:01:03.736Z,0
2016-12-17T03:02:14.477Z,0
2016-12-17T03:03:25.174Z,0
2016-12-17T03:04:35.916Z,0
2016-12-17T03:05:46.620Z,0
2016-12-17T03:06:57.362Z,0
2016-12-17T03:08:08.083Z,0
2016-12-17T03:09:18.804Z,0
2016-12-17T03:10:29.504Z,0
2016-12-17T03:11:40.224Z,0
2016-12-17T03:12:50.924Z,0
2016-12-17T03:14:01.663Z,0
2016-12-17T03:15:12.389Z,0
2016-12-17T03:16:23.108Z,0
2016-12-17T03:17:33.828Z,0
2016-12-17T03:18:44.550Z,0
2016-12-17T03:19:55.271Z,0
2016-12-17T03:21:05.993Z,0
2016-12-17T03:22:16.716Z,0
2016-12-17T03:23:27.456Z,0
2016-12-17T03:24:38.198Z,0
2016-12-17T03:25:48.915Z,0
2016-12-17T03:26:59.625Z,0
2016-12-17T03:28:10.382Z,0
2016-12-17T03:29:21.115Z,0
2016-12-17T03:30:31.857Z,0
2016-12-17T03:31:42.581Z,0
2016-12-17T03:32:53.323Z,0
2016-12-17T03:34:04.050Z,0
2016-12-17T03:35:14.791Z,0
2016-12-17T03:36:25.532Z,0
2016-12-17T03:37:36.235Z,0
2016-12-17T03:38:46.957Z,0
2016-12-17T03:39:57.653Z,0
2016-12-17T03:41:08.396Z,0
2016-12-17T03:42:19.117Z,0
2016-12-17T03:43:29.856Z,0
2016-12-17T03:44:40.580Z,0
2016-12-17T03:45:51.305Z,0
2016-12-17T03:47:02.025Z,0
2016-12-17T03:48:12.722Z,0
2016-12-17T03:49:23.418Z,0
2016-12-17T03:50:34.118Z,0
2016-12-17T03:51:44.862Z,0
2016-12-17T03:52:55.581Z,0
2016-12-17T03:54:06.295Z,0
2016-12-17T03:55:17.004Z,0
2016-12-17T03:56:27.723Z,0
2016-12-17T03:57:38.440Z,0
2016-12-17T03:58:49.136Z,0
2016-12-17T03:59:59.857Z,0
2016-12-17T04:01:10.578Z,0
2016-12-17T04:02:21.302Z,0
2016-12-17T04:03:32.070Z,0
2016-12-17T04:04:43.112Z,0
2016-12-17T04:05:53.841Z,0
2016-12-17T04:07:04.567Z,0
2016-12-17T04:08:15.282Z,0
2016-12-17T04:09:26.010Z,0
2016-12-17T04:10:36.751Z,0
2016-12-17T04:11:47.492Z,0
2016-12-17T04:12:58.221Z,0
2016-12-17T04:14:08.987Z,0
2016-12-17T04:15:19.733Z,0
2016-12-17T04:16:30.480Z,0
2016-12-17T04:17:41.227Z,0
2016-12-17T04:18:52.244Z,0
2016-12-17T04:20:02.989Z,0
2016-12-17T04:21:14.003Z,0
2016-12-17T04:22:24.714Z,0
2016-12-17T04:23:35.435Z,0
2016-12-17T04:24:46.148Z,0
2016-12-17T04:25:56.874Z,0
2016-12-17T04:27:07.619Z,0
2016-12-17T04:28:18.362Z,0
2016-12-17T04:29:29.083Z,0
2016-12-17T04:30:39.788Z,0
2016-12-17T04:31:50.528Z,0
2016-12-17T04:33:01.296Z,0
2016-12-17T04:34:12.017Z,0
2016-12-17T04:35:22.717Z,0
2016-12-17T04:36:33.440Z,0
2016-12-17T04:37:44.176Z,0
2016-12-17T04:38:54.901Z,0
2016-12-17T04:40:05.650Z,0
2016-12-17T04:41:16.373Z,0
2016-12-17T04:42:27.114Z,0
2016-12-17T04:43:37.845Z,0
2016-12-17T04:44:48.882Z,0
2016-12-17T04:45:59.623Z,0
2016-12-17T04:47:10.365Z,0
2016-12-17T04:48:21.369Z,0
2016-12-17T04:49:32.090Z,0
2016-12-17T04:50:42.787Z,0
2016-12-17T04:51:53.511Z,0
2016-12-17T04:53:04.253Z,0
2016-12-17T04:54:14.975Z,0
2016-12-17T04:55:25.691Z,0
2016-12-17T04:56:36.395Z,0
2016-12-17T04:57:47.116Z,0
2016-12-17T04:58:57.838Z,0
2016-12-17T05:00:08.574Z,0
2016-12-17T05:01:19.305Z,0
2016-12-17T05:02:30.005Z,0
2016-12-17T05:03:40.743Z,0
2016-12-17T05:04:51.466Z,0
2016-12-17T05:06:02.218Z,0
2016-12-17T05:07:12.983Z,0
2016-12-17T05:08:23.685Z,0
2016-12-17T05:09:34.425Z,0
2016-12-17T05:10:45.148Z,0
2016-12-17T05:11:55.885Z,0
2016-12-17T05:13:06.616Z,0
2016-12-17T05:14:17.349Z,0
2016-12-17T05:15:28.070Z,0
2016-12-17T05:16:38.808Z,0
2016-12-17T05:17:49.526Z,0
2016-12-17T05:19:00.269Z,0
2016-12-17T05:20:10.991Z,0
2016-12-17T05:21:21.749Z,0
2016-12-17T05:22:32.457Z,0
2016-12-17T05:23:43.205Z,0
2016-12-17T05:24:53.925Z,0
2016-12-17T05:26:04.647Z,0
2016-12-17T05:27:15.391Z,0
2016-12-17T05:28:26.133Z,0
2016-12-17T05:29:36.859Z,0
2016-12-17T05:30:47.583Z,0
2016-12-17T05:31:58.324Z,0
2016-12-17T05:33:09.044Z,0
2016-12-17T05:34:19.768Z,0
2016-12-17T05:35:30.489Z,0
2016-12-17T05:36:41.236Z,0
2016-12-17T05:37:51.976Z,0
2016-12-17T05:39:03.014Z,0
2016-12-17T05:40:13.722Z,0
2016-12-17T05:41:24.439Z,0
2016-12-17T05:42:35.164Z,0
2016-12-17T05:43:45.907Z,0
2016-12-17T05:44:56.602Z,0
2016-12-17T05:46:07.325Z,0
2016-12-17T05:47:18.045Z,0
2016-12-17T05:48:28.769Z,0
2016-12-17T05:49:39.511Z,0
2016-12-17T05:50:50.233Z,0
2016-12-17T05:52:00.929Z,0
2016-12-17T05:53:11.654Z,0
2016-12-17T05:54:22.405Z,0
2016-12-17T05:55:33.435Z,0
2016-12-17T05:56:44.191Z,0
2016-12-17T05:57:54.929Z,0
2016-12-17T05:59:05.651Z,0
2016-12-17T06:00:16.382Z,0
2016-12-17T06:01:27.121Z,0
2016-12-17T06:02:37.847Z,0
2016-12-17T06:03:48.567Z,0
2016-12-17T06:04:59.270Z,0
2016-12-17T06:06:10.013Z,0
2016-12-17T06:07:20.730Z,0
2016-12-17T06:08:31.452Z,0
2016-12-17T06:09:42.169Z,0
2016-12-17T06:10:52.894Z,0
2016-12-17T06:12:03.614Z,0
2016-12-17T06:13:14.328Z,0
2016-12-17T06:14:25.059Z,0
2016-12-17T06:15:35.792Z,0
2016-12-17T06:16:46.501Z,0
2016-12-17T06:17:57.225Z,0
2016-12-17T06:19:08.262Z,0
2016-12-17T06:20:19.011Z,0
2016-12-17T06:21:29.732Z,0
2016-12-17T06:22:40.479Z,0
2016-12-17T06:23:51.224Z,0
2016-12-17T06:25:01.976Z,0
2016-12-17T06:26:12.741Z,0
2016-12-17T06:27:23.462Z,0
2016-12-17T06:28:34.205Z,0
2016-12-17T06:29:44.930Z,0
2016-12-17T06:30:55.650Z,0
2016-12-17T06:32:06.371Z,0
2016-12-17T06:33:17.094Z,0
2016-12-17T06:34:27.838Z,0
2016-12-17T06:35:38.581Z,0
2016-12-17T06:36:49.280Z,0
2016-12-17T06:38:00.023Z,4
2016-12-17T06:39:10.747Z,4
2016-12-17T06:40:21.493Z,4
2016-12-17T06:41:32.240Z,0
2016-12-17T06:42:42.985Z,4
2016-12-17T06:43:53.709Z,4
2016-12-17T06:45:04.453Z,4
2016-12-17T06:46:15.196Z,8
2016-12-17T06:47:25.941Z,4
2016-12-17T06:48:36.646Z,8
2016-12-17T06:49:47.358Z,8
2016-12-17T06:50:58.383Z,12
2016-12-17T06:52:09.130Z,16
2016-12-17T06:53:19.850Z,16
2016-12-17T06:54:30.592Z,24
2016-12-17T06:55:41.314Z,24
2016-12-17T06:56:52.063Z,28
2016-12-17T06:58:02.780Z,36
2016-12-17T06:59:13.501Z,36
2016-12-17T07:00:24.223Z,44
2016-12-17T07:01:34.961Z,48
2016-12-17T07:02:45.681Z,56
2016-12-17T07:03:56.431Z,60
2016-12-17T07:05:07.156Z,68
2016-12-17T07:06:17.857Z,68
2016-12-17T07:07:28.603Z,76
2016-12-17T07:08:39.319Z,84
2016-12-17T07:09:50.040Z,108
2016-12-17T07:11:00.766Z,120
2016-12-17T07:12:11.501Z,124
2016-12-17T07:13:22.237Z,136
2016-12-17T07:14:32.980Z,140
2016-12-17T07:15:43.695Z,164
2016-12-17T07:16:54.396Z,176
2016-12-17T07:18:05.117Z,176
2016-12-17T07:19:15.861Z,180
2016-12-17T07:20:26.608Z,196
2016-12-17T07:21:37.354Z,216
2016-12-17T07:22:48.106Z,244
2016-12-17T07:23:58.839Z,260
2016-12-17T07:25:09.564Z,260
2016-12-17T07:26:20.289Z,288
2016-12-17T07:27:31.006Z,316
2016-12-17T07:28:41.730Z,348
2016-12-17T07:29:52.452Z,364
2016-12-17T07:31:03.218Z,372
2016-12-17T07:32:13.943Z,400
2016-12-17T07:33:24.661Z,440
2016-12-17T07:34:35.365Z,424
2016-12-17T07:35:46.406Z,468
2016-12-17T07:36:57.151Z,500
2016-12-17T07:38:07.870Z,496
2016-12-17T07:39:18.594Z,524
2016-12-17T07:40:29.332Z,568
2016-12-17T07:41:40.378Z,592
2016-12-17T07:42:51.099Z,596
2016-12-17T07:44:01.800Z,640
2016-12-17T07:45:12.500Z,676
2016-12-17T07:46:23.226Z,704
2016-12-17T07:47:33.966Z,724
2016-12-17T07:48:44.683Z,776
2016-12-17T07:49:55.401Z,796
2016-12-17T07:51:06.126Z,800
2016-12-17T07:52:16.822Z,840
2016-12-17T07:53:27.547Z,884
2016-12-17T07:54:38.270Z,864
2016-12-17T07:55:48.990Z,928
2016-12-17T07:56:59.708Z,928
2016-12-17T07:58:10.731Z,940
2016-12-17T07:59:21.428Z,928
2016-12-17T08:00:32.177Z,960
2016-12-17T08:01:42.957Z,1032
2016-12-17T08:02:53.666Z,1052
2016-12-17T08:04:04.359Z,1072
2016-12-17T08:05:15.055Z,1068
2016-12-17T08:06:25.767Z,1156
2016-12-17T08:07:36.501Z,1112
2016-12-17T08:08:47.241Z,1156
2016-12-17T08:09:57.939Z,1180
2016-12-17T08:11:08.682Z,1216
2016-12-17T08:12:19.421Z,1236
2016-12-17T08:13:30.155Z,1308
2016-12-17T08:14:40.917Z,1244
2016-12-17T08:15:51.644Z,1324
2016-12-17T08:17:02.388Z,1392
2016-12-17T08:18:13.110Z,1388
2016-12-17T08:19:23.839Z,1360
2016-12-17T08:20:34.578Z,1372
2016-12-17T08:21:45.301Z,1428
2016-12-17T08:22:56.042Z,1480
2016-12-17T08:24:06.768Z,1384
2016-12-17T08:25:17.481Z,1548
2016-12-17T08:26:28.210Z,1448
2016-12-17T08:27:38.956Z,1624
2016-12-17T08:28:49.701Z,1592
2016-12-17T08:30:00.447Z,1540
2016-12-17T08:31:11.172Z,1564
2016-12-17T08:32:21.903Z,1752
2016-12-17T08:33:32.624Z,1636
2016-12-17T08:34:43.352Z,1692
2016-12-17T08:35:54.073Z,1536
2016-12-17T08:37:05.070Z,1588
2016-12-17T08:38:15.794Z,1576
2016-12-17T08:39:26.536Z,1612
2016-12-17T08:40:37.261Z,1724
2016-12-17T08:41:47.999Z,1764
2016-12-17T08:42:58.703Z,1752
2016-12-17T08:44:09.421Z,1708
2016-12-17T08:45:20.164Z,1792
2016-12-17T08:46:30.866Z,1744
2016-12-17T08:47:41.612Z,1728
2016-12-17T08:48:52.329Z,2000
2016-12-17T08:50:03.043Z,2100
2016-12-17T08:51:14.067Z,2064
2016-12-17T08:52:24.772Z,2048
2016-12-17T08:53:35.488Z,2060
2016-12-17T08:54:46.211Z,2180
2016-12-17T08:55:56.939Z,2168
2016-12-17T08:57:07.994Z,2044
2016-12-17T08:58:18.721Z,2220
2016-12-17T08:59:29.460Z,2052
2016-12-17T09:00:40.192Z,2120
2016-12-17T09:01:50.938Z,2092
2016-12-17T09:03:01.684Z,2040
2016-12-17T09:04:12.377Z,2244
2016-12-17T09:05:23.111Z,2200
2016-12-17T09:06:33.836Z,2248
2016-12-17T09:07:44.565Z,2336
2016-12-17T09:08:55.285Z,2244
2016-12-17T09:10:05.981Z,2280
2016-12-17T09:11:16.706Z,2252
2016-12-17T09:12:27.469Z,2320
2016-12-17T09:13:38.178Z,2248
2016-12-17T09:14:48.908Z,2164
2016-12-17T09:15:59.667Z,2240
2016-12-17T09:17:10.413Z,2136
2016-12-17T09:18:21.132Z,2164
2016-12-17T09:19:31.854Z,2236
2016-12-17T09:20:42.546Z,2268
2016-12-17T09:21:53.243Z,2440
2016-12-17T09:23:03.946Z,2428
2016-12-17T09:24:14.684Z,2648
2016-12-17T09:25:25.405Z,2732
2016-12-17T09:26:36.131Z,2548
2016-12-17T09:27:46.874Z,2548
2016-12-17T09:28:57.625Z,2576
2016-12-17T09:30:08.363Z,2528
2016-12-17T09:31:19.409Z,2600
2016-12-17T09:32:30.124Z,2560
2016-12-17T09:33:40.830Z,2548
2016-12-17T09:34:51.551Z,2408
2016-12-17T09:36:02.268Z,2436
2016-12-17T09:37:12.989Z,2744
2016-12-17T09:38:23.717Z,2628
2016-12-17T09:39:34.459Z,3044
2016-12-17T09:40:45.180Z,2988
2016-12-17T09:41:55.904Z,3048
2016-12-17T09:43:06.649Z,2984
2016-12-17T09:44:17.394Z,2960
2016-12-17T09:45:28.116Z,2740
2016-12-17T09:46:38.837Z,2728
2016-12-17T09:47:49.545Z,2976
2016-12-17T09:49:00.291Z,2952
2016-12-17T09:50:11.013Z,2948
2016-12-17T09:51:21.751Z,2912
2016-12-17T09:52:32.487Z,2960
2016-12-17T09:53:43.201Z,3024
2016-12-17T09:54:53.932Z,2956
2016-12-17T09:56:04.650Z,2916
2016-12-17T09:57:15.378Z,2756
2016-12-17T09:58:26.121Z,2876
2016-12-17T09:59:36.841Z,2880
2016-12-17T10:00:47.587Z,3072
2016-12-17T10:01:58.315Z,3148
2016-12-17T10:03:09.055Z,3148
2016-12-17T10:04:19.798Z,3112
2016-12-17T10:05:30.500Z,3064
2016-12-17T10:06:41.224Z,3224
2016-12-17T10:07:51.963Z,3352
2016-12-17T10:09:02.659Z,3256
2016-12-17T10:10:13.406Z,3232
2016-12-17T10:11:24.166Z,3288
2016-12-17T10:12:34.898Z,3332
2016-12-17T10:13:45.640Z,3220
2016-12-17T10:14:56.667Z,3184
2016-12-17T10:16:07.402Z,3064
2016-12-17T10:17:18.128Z,3108
2016-12-17T10:18:28.870Z,3260
2016-12-17T10:19:39.625Z,3244
2016-12-17T10:20:50.343Z,3124
2016-12-17T10:22:01.094Z,3128
2016-12-17T10:23:11.836Z,3228
2016-12-17T10:24:22.529Z,3312
2016-12-17T10:25:33.259Z,3300
2016-12-17T10:26:44.001Z,3236
2016-12-17T10:27:54.742Z,3440
2016-12-17T10:29:05.470Z,3280
2016-12-17T10:30:16.215Z,3268
2016-12-17T10:31:26.959Z,3184
2016-12-17T10:32:37.704Z,3296
2016-12-17T10:33:48.447Z,3232
2016-12-17T10:34:59.168Z,3268
2016-12-17T10:36:09.896Z,3428
2016-12-17T10:37:20.610Z,3452
2016-12-17T10:38:31.948Z,3252
2016-12-17T10:39:42.655Z,3880
2016-12-17T10:40:53.379Z,3772
2016-12-17T10:42:04.118Z,3948
2016-12-17T10:43:14.815Z,3620
2016-12-17T10:44:25.535Z,3516
2016-12-17T10:45:36.262Z,3508
2016-12-17T10:46:46.982Z,3588
2016-12-17T10:47:57.726Z,3452
2016-12-17T10:49:08.448Z,3308
2016-12-17T10:50:19.194Z,3224
2016-12-17T10:51:29.957Z,3360
2016-12-17T10:52:40.661Z,3244
2016-12-17T10:53:51.378Z,3276
2016-12-17T10:55:02.101Z,3100
2016-12-17T10:56:12.826Z,3012
2016-12-17T10:57:23.569Z,2972
2016-12-17T10:58:34.340Z,3004
2016-12-17T10:59:45.039Z,3156
2016-12-17T11:00:55.759Z,3076
2016-12-17T11:02:06.504Z,2936
2016-12-17T11:03:17.247Z,3080
2016-12-17T11:04:27.965Z,3360
2016-12-17T11:05:38.705Z,3292
2016-12-17T11:06:49.437Z,3280
2016-12-17T11:08:00.164Z,3192
2016-12-17T11:09:10.921Z,3200
2016-12-17T11:10:21.648Z,3168
2016-12-17T11:11:32.371Z,3024
2016-12-17T11:12:43.092Z,3092
2016-12-17T11:13:53.831Z,3140
2016-12-17T11:15:04.559Z,2900
2016-12-17T11:16:15.281Z,2848
2016-12-17T11:17:25.990Z,2688
2016-12-17T11:18:36.721Z,2720
2016-12-17T11:19:47.487Z,2928
2016-12-17T11:20:58.211Z,3100
2016-12-17T11:22:08.932Z,3260
2016-12-17T11:23:19.654Z,3556
2016-12-17T11:24:30.374Z,3504
2016-12-17T11:25:41.075Z,3332
2016-12-17T11:26:51.800Z,3192
2016-12-17T11:28:02.540Z,3100
2016-12-17T11:29:13.279Z,3060
2016-12-17T11:30:24.010Z,3036
2016-12-17T11:31:34.750Z,2972
2016-12-17T11:32:45.500Z,2984
2016-12-17T11:33:56.242Z,3076
2016-12-17T11:35:06.963Z,3072
2016-12-17T11:36:17.665Z,3012
2016-12-17T11:37:28.419Z,3112
2016-12-17T11:38:39.451Z,2932
2016-12-17T11:39:50.171Z,2620
2016-12-17T11:41:00.917Z,2680
2016-12-17T11:42:11.640Z,2660
2016-12-17T11:43:22.377Z,3020
2016-12-17T11:44:33.106Z,3092
2016-12-17T11:45:43.854Z,3212
2016-12-17T11:46:54.601Z,3236
2016-12-17T11:48:05.298Z,3172
2016-12-17T11:49:16.020Z,3168
2016-12-17T11:50:26.740Z,3068
2016-12-17T11:51:37.502Z,3208
2016-12-17T11:52:48.220Z,3164
2016-12-17T11:53:58.927Z,3148
2016-12-17T11:55:09.954Z,2896
2016-12-17T11:56:20.665Z,2972
2016-12-17T11:57:31.380Z,2744
2016-12-17T11:58:42.101Z,2796
2016-12-17T11:59:53.112Z,3068
2016-12-17T12:01:03.842Z,2896
2016-12-17T12:02:14.571Z,3184
2016-12-17T12:03:25.291Z,3276
2016-12-17T12:04:36.008Z,3076
2016-12-17T12:05:46.718Z,3032
2016-12-17T12:06:57.469Z,3056
2016-12-17T12:08:08.218Z,3076
2016-12-17T12:09:18.947Z,3208
2016-12-17T12:10:29.971Z,3280
2016-12-17T12:11:40.708Z,3404
2016-12-17T12:12:51.464Z,3488
2016-12-17T12:14:02.184Z,3352
2016-12-17T12:15:12.931Z,3436
2016-12-17T12:16:23.673Z,3480
2016-12-17T12:17:34.393Z,3360
2016-12-17T12:18:45.094Z,3296
2016-12-17T12:19:55.813Z,3160
2016-12-17T12:21:06.541Z,3040
2016-12-17T12:22:17.306Z,3016
2016-12-17T12:23:28.069Z,2960
2016-12-17T12:24:38.798Z,2904
2016-12-17T12:25:49.543Z,2952
2016-12-17T12:27:00.261Z,3016
2016-12-17T12:28:10.975Z,2988
2016-12-17T12:29:21.704Z,2976
2016-12-17T12:30:32.427Z,3024
2016-12-17T12:31:43.165Z,2996
2016-12-17T12:32:53.894Z,2940
2016-12-17T12:34:04.621Z,2976
2016-12-17T12:35:15.349Z,2936
2016-12-17T12:36:26.071Z,2832
2016-12-17T12:37:36.792Z,2988
2016-12-17T12:38:47.538Z,3024
2016-12-17T12:39:58.295Z,2928
2016-12-17T12:41:09.041Z,3000
2016-12-17T12:42:19.787Z,2820
2016-12-17T12:43:30.529Z,2680
2016-12-17T12:44:41.226Z,2684
2016-12-17T12:45:51.950Z,2628
2016-12-17T12:47:02.673Z,2464
2016-12-17T12:48:13.387Z,2368
2016-12-17T12:49:24.113Z,2348
2016-12-17T12:50:34.848Z,2436
2016-12-17T12:51:45.568Z,2304
2016-12-17T12:52:56.300Z,2248
2016-12-17T12:54:07.018Z,2256
2016-12-17T12:55:17.719Z,2328
2016-12-17T12:56:28.435Z,2284
2016-12-17T12:57:39.159Z,2208
2016-12-17T12:58:49.880Z,2076
2016-12-17T13:00:00.597Z,2116
2016-12-17T13:01:11.618Z,2088
2016-12-17T13:02:22.348Z,2104
2016-12-17T13:03:33.385Z,2044
2016-12-17T13:04:44.106Z,1960
2016-12-17T13:05:54.831Z,1968
2016-12-17T13:07:05.578Z,1984
2016-12-17T13:08:16.348Z,1996
2016-12-17T13:09:27.366Z,1888
2016-12-17T13:10:38.115Z,1944
2016-12-17T13:11:48.862Z,2032
2016-12-17T13:12:59.881Z,1956
2016-12-17T13:14:10.624Z,1956
2016-12-17T13:15:21.345Z,1932
2016-12-17T13:16:32.086Z,1924
2016-12-17T13:17:42.836Z,1900
2016-12-17T13:18:53.582Z,1960
2016-12-17T13:20:04.300Z,1936
2016-12-17T13:21:15.029Z,1996
2016-12-17T13:22:25.745Z,2000
2016-12-17T13:23:36.488Z,1904
2016-12-17T13:24:47.196Z,1764
2016-12-17T13:25:57.964Z,1760
2016-12-17T13:27:08.709Z,1928
2016-12-17T13:28:19.437Z,2000
2016-12-17T13:29:30.451Z,1736
2016-12-17T13:30:41.201Z,1664
2016-12-17T13:31:51.942Z,1488
2016-12-17T13:33:02.687Z,1416
2016-12-17T13:34:13.710Z,1304
2016-12-17T13:35:24.444Z,1096
2016-12-17T13:36:35.178Z,1016
2016-12-17T13:37:45.944Z,1068
2016-12-17T13:38:56.669Z,1032
2016-12-17T13:40:07.419Z,1044
2016-12-17T13:41:18.136Z,972
2016-12-17T13:42:28.873Z,864
2016-12-17T13:43:39.577Z,840
2016-12-17T13:44:50.322Z,800
2016-12-17T13:46:01.369Z,808
2016-12-17T13:47:12.114Z,848
2016-12-17T13:48:23.160Z,812
2016-12-17T13:49:33.886Z,768
2016-12-17T13:50:44.624Z,788
2016-12-17T13:51:55.345Z,792
2016-12-17T13:53:06.062Z,788
2016-12-17T13:54:16.761Z,740
2016-12-17T13:55:27.483Z,720
2016-12-17T13:56:38.187Z,736
2016-12-17T13:57:48.904Z,724
2016-12-17T13:58:59.641Z,728
2016-12-17T14:00:10.345Z,716
2016-12-17T14:01:21.084Z,700
2016-12-17T14:02:31.814Z,676
2016-12-17T14:03:42.533Z,680
2016-12-17T14:04:53.254Z,676
2016-12-17T14:06:03.976Z,668
2016-12-17T14:07:14.725Z,680
2016-12-17T14:08:25.443Z,712
2016-12-17T14:09:36.166Z,688
2016-12-17T14:10:46.912Z,676
2016-12-17T14:11:57.656Z,644
2016-12-17T14:13:08.397Z,620
2016-12-17T14:14:19.094Z,584
2016-12-17T14:15:30.115Z,540
2016-12-17T14:16:40.835Z,496
2016-12-17T14:17:51.583Z,488
2016-12-17T14:19:02.278Z,492
2016-12-17T14:20:13.008Z,500
2016-12-17T14:21:23.749Z,496
2016-12-17T14:22:34.469Z,472
2016-12-17T14:23:45.212Z,456
2016-12-17T14:24:55.950Z,456
2016-12-17T14:26:06.675Z,432
2016-12-17T14:27:17.703Z,424
2016-12-17T14:28:28.426Z,408
2016-12-17T14:29:39.144Z,416
2016-12-17T14:30:49.880Z,396
2016-12-17T14:32:00.612Z,384
2016-12-17T14:33:11.634Z,372
2016-12-17T14:34:22.356Z,372
2016-12-17T14:35:33.114Z,360
2016-12-17T14:36:43.841Z,348
2016-12-17T14:37:54.568Z,328
2016-12-17T14:39:05.307Z,316
2016-12-17T14:40:16.059Z,304
2016-12-17T14:41:26.777Z,284
2016-12-17T14:42:37.515Z,256
2016-12-17T14:43:48.248Z,232
2016-12-17T14:44:58.986Z,212
2016-12-17T14:46:09.707Z,200
2016-12-17T14:47:20.436Z,180
2016-12-17T14:48:31.181Z,164
2016-12-17T14:49:41.904Z,148
2016-12-17T14:50:52.647Z,132
2016-12-17T14:52:03.369Z,120
2016-12-17T14:53:14.116Z,108
2016-12-17T14:54:24.836Z,96
2016-12-17T14:55:35.534Z,88
2016-12-17T14:56:46.268Z,84
2016-12-17T14:57:56.993Z,80
2016-12-17T14:59:07.743Z,80
2016-12-17T15:00:18.467Z,80
2016-12-17T15:01:29.210Z,80
2016-12-17T15:02:39.930Z,64
2016-12-17T15:03:50.627Z,52
2016-12-17T15:05:01.348Z,48
2016-12-17T15:06:12.070Z,40
2016-12-17T15:07:22.799Z,32
2016-12-17T15:08:33.539Z,28
2016-12-17T15:09:44.275Z,24
2016-12-17T15:10:54.978Z,24
2016-12-17T15:12:05.700Z,16
2016-12-17T15:13:16.421Z,12
2016-12-17T15:14:27.141Z,12
2016-12-17T15:15:37.866Z,8
2016-12-17T15:16:48.917Z,8
2016-12-17T15:17:59.658Z,8
2016-12-17T15:19:10.396Z,8
2016-12-17T15:20:21.114Z,4
2016-12-17T15:21:31.842Z,4
2016-12-17T15:22:42.542Z,4
2016-12-17T15:23:53.288Z,4
2016-12-17T15:25:04.051Z,4
2016-12-17T15:26:14.756Z,4
2016-12-17T15:27:25.477Z,0
2016-12-17T15:28:36.253Z,0
2016-12-17T15:29:46.982Z,0
2016-12-17T15:30:57.711Z,4
2016-12-17T15:32:08.431Z,4
2016-12-17T15:33:19.131Z,0
2016-12-17T15:34:29.903Z,0
2016-12-17T15:35:40.644Z,0
2016-12-17T15:36:51.358Z,0
2016-12-17T15:38:02.062Z,0
2016-12-17T15:39:12.782Z,0
2016-12-17T15:40:23.506Z,0
2016-12-17T15:41:34.224Z,0
2016-12-17T15:42:44.966Z,0
2016-12-17T15:43:55.669Z,0
2016-12-17T15:45:06.387Z,0
2016-12-17T15:46:17.129Z,0
2016-12-17T15:47:27.857Z,0
2016-12-17T15:48:38.574Z,0
2016-12-17T15:49:49.298Z,0
2016-12-17T15:51:00.345Z,0
2016-12-17T15:52:11.087Z,0
2016-12-17T15:53:21.811Z,0
2016-12-17T15:54:32.528Z,0
2016-12-17T15:55:43.228Z,0
2016-12-17T15:56:53.947Z,0
2016-12-17T15:58:04.690Z,0
2016-12-17T15:59:15.407Z,0
2016-12-17T16:00:26.132Z,0
2016-12-17T16:01:36.828Z,0
2016-12-17T16:02:47.529Z,0
2016-12-17T16:03:58.245Z,0
2016-12-17T16:05:08.976Z,0
2016-12-17T16:06:19.695Z,0
2016-12-17T16:07:30.736Z,0
2016-12-17T16:08:41.472Z,0
2016-12-17T16:09:52.200Z,0
2016-12-17T16:11:02.896Z,0
2016-12-17T16:12:13.592Z,0
2016-12-17T16:13:24.317Z,0
2016-12-17T16:14:35.038Z,0
2016-12-17T16:15:45.750Z,0
2016-12-17T16:16:56.479Z,0
2016-12-17T16:18:07.503Z,0
2016-12-17T16:19:18.242Z,0
2016-12-17T16:20:28.956Z,0
2016-12-17T16:21:39.685Z,0
2016-12-17T16:22:50.408Z,0
2016-12-17T16:24:01.132Z,0
2016-12-17T16:25:11.876Z,0
2016-12-17T16:26:22.621Z,0
2016-12-17T16:27:33.318Z,0
2016-12-17T16:28:44.078Z,0
2016-12-17T16:29:54.802Z,0
2016-12-17T16:31:05.531Z,0
2016-12-17T16:32:16.253Z,0
2016-12-17T16:33:26.991Z,0
2016-12-17T16:34:37.716Z,0
2016-12-17T16:35:48.441Z,0
2016-12-17T16:36:59.184Z,0
2016-12-17T16:38:09.904Z,0